createdAt,value
2022-08-26T00:01:37.683Z,6.80
2022-08-26T00:04:04.531Z,6.57
2022-08-26T00:06:33.401Z,6.97
2022-08-26T00:09:00.206Z,6.23
2022-08-26T00:11:27.263Z,7.33
2022-08-26T00:13:56.003Z,6.90
2022-08-26T00:16:24.534Z,6.60
2022-08-26T00:18:51.103Z,6.43
2022-08-26T00:21:17.739Z,7.03
2022-08-26T00:23:44.615Z,5.40
2022-08-26T00:26:11.458Z,6.50
2022-08-26T00:28:39.481Z,6.20
2022-08-26T00:31:07.169Z,6.53
2022-08-26T00:33:34.096Z,7.07
2022-08-26T00:36:01.651Z,6.10
2022-08-26T00:38:29.049Z,6.47
2022-08-26T00:40:57.092Z,6.87
2022-08-26T00:43:24.978Z,7.10
2022-08-26T00:46:11.009Z,6.70
2022-08-26T00:48:42.404Z,6.43
2022-08-26T00:51:16.820Z,7.20
2022-08-26T00:53:55.087Z,7.13
2022-08-26T00:56:30.973Z,7.00
2022-08-26T00:59:01.025Z,6.90
2022-08-26T01:01:28.363Z,6.60
2022-08-26T01:03:58.007Z,6.70
2022-08-26T01:06:25.053Z,6.70
2022-08-26T01:08:52.524Z,6.17
2022-08-26T01:11:19.936Z,6.37
2022-08-26T01:13:48.219Z,6.60
2022-08-26T01:16:16.392Z,6.60
2022-08-26T01:18:44.817Z,6.63
2022-08-26T01:21:36.295Z,6.70
2022-08-26T01:24:07.983Z,7.33
2022-08-26T01:26:43.182Z,7.07
2022-08-26T01:29:15.575Z,7.00
2022-08-26T01:31:49.613Z,7.97
2022-08-26T01:34:20.416Z,7.23
2022-08-26T01:36:51.424Z,6.60
2022-08-26T01:39:18.544Z,6.80
2022-08-26T01:41:46.251Z,6.37
2022-08-26T01:44:18.840Z,7.30
2022-08-26T01:46:48.860Z,6.93
2022-08-26T01:49:18.040Z,7.40
2022-08-26T01:51:46.452Z,6.80
2022-08-26T01:54:14.055Z,6.27
2022-08-26T01:56:41.419Z,7.50
2022-08-26T01:59:12.250Z,7.50
2022-08-26T02:01:39.246Z,7.70
2022-08-26T02:04:17.630Z,7.90
2022-08-26T02:06:45.031Z,7.43
2022-08-26T02:09:12.240Z,6.90
2022-08-26T02:11:39.332Z,6.87
2022-08-26T02:14:11.696Z,6.80
2022-08-26T02:16:42.281Z,7.00
2022-08-26T02:19:17.209Z,6.97
2022-08-26T02:21:46.438Z,8.63
2022-08-26T02:24:24.594Z,7.60
2022-08-26T02:26:54.138Z,12.53
2022-08-26T02:29:35.077Z,8.83
2022-08-26T02:32:02.803Z,11.97
2022-08-26T02:34:32.270Z,12.20
2022-08-26T02:37:11.163Z,11.27
2022-08-26T02:39:40.021Z,17.90
2022-08-26T02:42:07.075Z,14.73
2022-08-26T02:44:33.767Z,16.23
2022-08-26T02:47:01.178Z,13.20
2022-08-26T02:49:30.367Z,12.53
2022-08-26T02:51:57.118Z,12.43
2022-08-26T02:54:23.598Z,13.03
2022-08-26T02:56:51.326Z,11.77
2022-08-26T02:59:17.918Z,20.10
2022-08-26T03:01:45.215Z,13.33
2022-08-26T03:04:13.133Z,13.20
2022-08-26T03:06:42.179Z,18.87
2022-08-26T03:09:09.130Z,22.10
2022-08-26T03:11:36.717Z,20.60
2022-08-26T03:14:04.571Z,22.57
2022-08-26T03:16:33.246Z,24.80
2022-08-26T03:19:00.897Z,25.40
2022-08-26T03:21:27.356Z,25.47
2022-08-26T03:23:53.828Z,26.33
2022-08-26T03:26:20.349Z,31.43
2022-08-26T03:29:06.281Z,26.07
2022-08-26T03:31:33.048Z,27.10
2022-08-26T03:34:00.048Z,28.00
2022-08-26T03:36:27.199Z,28.80
2022-08-26T03:38:54.365Z,28.17
2022-08-26T03:41:21.367Z,29.80
2022-08-26T03:43:50.709Z,30.40
2022-08-26T03:46:18.651Z,29.90
2022-08-26T03:48:45.695Z,27.97
2022-08-26T03:51:14.512Z,27.20
2022-08-26T03:53:45.702Z,31.70
2022-08-26T03:56:12.814Z,29.87
2022-08-26T03:58:39.407Z,31.47
2022-08-26T04:01:09.894Z,32.40
2022-08-26T04:03:54.931Z,32.00
2022-08-26T04:06:21.712Z,30.33
2022-08-26T04:08:48.366Z,31.60
2022-08-26T04:11:20.406Z,35.87
2022-08-26T04:13:47.992Z,35.13
2022-08-26T04:16:17.488Z,36.20
2022-08-26T04:18:46.779Z,36.07
2022-08-26T04:21:15.341Z,33.93
2022-08-26T04:23:47.504Z,35.93
2022-08-26T04:26:15.170Z,34.97
2022-08-26T04:28:41.854Z,36.97
2022-08-26T04:31:12.395Z,35.27
2022-08-26T04:33:41.863Z,34.70
2022-08-26T04:36:09.084Z,33.03
2022-08-26T04:38:35.696Z,33.53
2022-08-26T04:41:03.311Z,34.57
2022-08-26T04:43:32.187Z,33.97
2022-08-26T04:46:01.223Z,33.07
2022-08-26T04:48:32.095Z,31.30
2022-08-26T04:50:59.947Z,31.33
2022-08-26T04:53:28.236Z,29.73
2022-08-26T04:55:55.418Z,31.77
2022-08-26T04:58:23.528Z,30.27
2022-08-26T05:00:52.061Z,29.40
2022-08-26T05:03:19.285Z,30.20
2022-08-26T05:05:47.788Z,32.13
2022-08-26T05:08:15.288Z,30.60
2022-08-26T05:10:43.725Z,30.57
2022-08-26T05:13:12.684Z,29.00
2022-08-26T05:15:42.283Z,28.17
2022-08-26T05:18:08.862Z,27.77
2022-08-26T05:20:46.384Z,28.73
2022-08-26T05:23:14.847Z,26.87
2022-08-26T05:25:45.738Z,27.67
2022-08-26T05:28:14.878Z,26.13
2022-08-26T05:30:42.541Z,25.43
2022-08-26T05:33:12.024Z,25.90
2022-08-26T05:35:39.167Z,25.83
2022-08-26T05:38:12.720Z,25.33
2022-08-26T05:40:43.117Z,24.80
2022-08-26T05:43:13.312Z,25.20
2022-08-26T05:45:46.091Z,23.90
2022-08-26T05:48:14.630Z,22.10
2022-08-26T05:50:44.484Z,23.37
2022-08-26T05:53:13.165Z,22.57
2022-08-26T05:55:48.077Z,21.80
2022-08-26T05:58:14.876Z,21.53
2022-08-26T06:00:45.115Z,21.93
2022-08-26T06:03:11.754Z,21.43
2022-08-26T06:05:39.476Z,20.80
2022-08-26T06:08:13.834Z,22.70
2022-08-26T06:10:44.984Z,20.30
2022-08-26T06:13:13.282Z,19.73
2022-08-26T06:15:42.975Z,19.40
2022-08-26T06:18:11.190Z,20.27
2022-08-26T06:20:43.532Z,20.10
2022-08-26T06:23:40.456Z,17.60
2022-08-26T06:26:07.558Z,20.63
2022-08-26T06:28:37.712Z,22.27
2022-08-26T06:31:04.506Z,24.13
2022-08-26T06:33:31.205Z,23.90
2022-08-26T06:35:58.411Z,22.30
2022-08-26T06:38:25.453Z,20.03
2022-08-26T06:40:55.058Z,20.67
2022-08-26T06:43:24.860Z,20.87
2022-08-26T06:45:52.166Z,20.10
2022-08-26T06:48:20.422Z,20.80
2022-08-26T06:50:47.968Z,22.17
2022-08-26T06:53:17.083Z,20.47
2022-08-26T06:55:46.113Z,25.50
2022-08-26T06:58:14.159Z,21.97
2022-08-26T07:00:47.138Z,22.13
2022-08-26T07:03:14.086Z,20.00
2022-08-26T07:05:40.752Z,21.17
2022-08-26T07:08:07.242Z,19.53
2022-08-26T07:10:35.556Z,20.80
2022-08-26T07:13:02.707Z,19.87
2022-08-26T07:15:31.466Z,26.47
2022-08-26T07:17:58.186Z,37.70
2022-08-26T07:20:24.735Z,29.60
2022-08-26T07:22:51.603Z,27.33
2022-08-26T07:25:19.317Z,25.03
2022-08-26T07:27:46.848Z,28.07
2022-08-26T07:30:20.853Z,29.50
2022-08-26T07:32:47.455Z,33.23
2022-08-26T07:35:14.759Z,30.73
2022-08-26T07:37:42.331Z,30.70
2022-08-26T07:40:10.096Z,34.77
2022-08-26T07:42:36.652Z,33.63
2022-08-26T07:45:04.177Z,36.43
2022-08-26T07:47:30.621Z,39.60
2022-08-26T07:49:57.790Z,49.57
2022-08-26T07:52:27.525Z,49.60
2022-08-26T07:54:55.938Z,56.23
2022-08-26T07:57:22.459Z,50.00
2022-08-26T07:59:50.960Z,52.50
2022-08-26T08:02:17.443Z,54.90
2022-08-26T08:04:44.029Z,55.13
2022-08-26T08:07:11.582Z,63.00
2022-08-26T08:09:38.502Z,60.47
2022-08-26T08:12:07.770Z,54.30
2022-08-26T08:14:36.475Z,45.00
2022-08-26T08:17:04.448Z,49.50
2022-08-26T08:19:36.811Z,53.60
2022-08-26T08:22:16.969Z,52.77
2022-08-26T08:24:44.594Z,54.93
2022-08-26T08:27:11.251Z,56.60
2022-08-26T08:29:38.623Z,50.57
2022-08-26T08:32:05.583Z,41.80
2022-08-26T08:34:37.947Z,36.37
2022-08-26T08:37:08.662Z,39.70
2022-08-26T08:39:37.045Z,36.60
2022-08-26T08:42:16.777Z,35.43
2022-08-26T08:44:52.118Z,37.73
2022-08-26T08:47:36.457Z,35.40
2022-08-26T08:50:52.301Z,35.67
2022-08-26T08:53:41.594Z,29.73
2022-08-26T08:56:15.662Z,24.80
2022-08-26T08:59:05.879Z,25.33
2022-08-26T09:01:52.247Z,26.00
2022-08-26T09:04:42.311Z,29.80
2022-08-26T09:07:13.427Z,33.23
2022-08-26T09:09:46.063Z,33.30
2022-08-26T09:12:29.353Z,45.87
2022-08-26T09:15:07.997Z,44.93
2022-08-26T09:18:04.561Z,44.00
2022-08-26T09:20:35.463Z,45.83
2022-08-26T09:23:03.678Z,41.97
2022-08-26T09:25:30.175Z,45.60
2022-08-26T09:27:57.791Z,50.17
2022-08-26T09:30:35.243Z,42.67
2022-08-26T09:33:01.758Z,38.13
2022-08-26T09:35:31.904Z,37.03
2022-08-26T09:37:59.002Z,36.27
2022-08-26T09:40:29.125Z,32.40
2022-08-26T09:43:22.182Z,29.23
2022-08-26T09:45:59.394Z,26.50
2022-08-26T09:48:30.446Z,24.33
2022-08-26T09:51:01.375Z,23.87
2022-08-26T09:53:33.136Z,16.40
2022-08-26T09:56:18.017Z,17.33
2022-08-26T09:58:47.306Z,16.10
2022-08-26T10:01:30.099Z,11.53
2022-08-26T10:04:31.120Z,9.77
2022-08-26T10:07:01.375Z,8.80
2022-08-26T10:09:33.204Z,7.90
2022-08-26T10:12:06.779Z,10.30
2022-08-26T10:14:39.824Z,8.47
2022-08-26T10:17:11.007Z,9.70
2022-08-26T10:19:56.640Z,9.23
2022-08-26T10:22:38.660Z,9.37
2022-08-26T10:25:09.878Z,13.07
2022-08-26T10:27:50.989Z,14.10
2022-08-26T10:30:22.288Z,14.13
2022-08-26T10:32:50.748Z,20.60
2022-08-26T10:35:19.260Z,21.63
2022-08-26T10:37:48.310Z,20.00
2022-08-26T10:40:18.355Z,20.77
2022-08-26T10:43:11.123Z,25.30
2022-08-26T10:45:44.148Z,19.70
2022-08-26T10:48:20.512Z,18.77
2022-08-26T10:50:48.042Z,15.57
2022-08-26T10:53:25.340Z,12.53
2022-08-26T10:56:19.234Z,10.70
2022-08-26T10:58:51.189Z,9.17
2022-08-26T11:01:45.724Z,9.57
2022-08-26T11:04:51.405Z,9.63
2022-08-26T11:07:44.275Z,9.57
2022-08-26T11:10:17.265Z,9.93
2022-08-26T11:12:45.335Z,8.63
2022-08-26T11:15:24.879Z,7.83
2022-08-26T11:17:51.441Z,8.43
2022-08-26T11:20:31.064Z,9.67
2022-08-26T11:23:23.044Z,8.80
2022-08-26T11:25:56.012Z,9.23
2022-08-26T11:28:34.309Z,12.20
2022-08-26T11:31:01.712Z,17.97
2022-08-26T11:33:43.851Z,19.40
2022-08-26T11:36:12.345Z,18.60
2022-08-26T11:38:42.811Z,18.33
2022-08-26T11:41:17.289Z,20.57
2022-08-26T11:43:45.299Z,20.17
2022-08-26T11:46:13.382Z,18.13
2022-08-26T11:48:43.240Z,17.60
2022-08-26T11:51:22.887Z,16.77
2022-08-26T11:53:49.703Z,17.57
2022-08-26T11:56:31.816Z,18.00
2022-08-26T11:59:01.044Z,16.97
2022-08-26T12:01:31.200Z,15.67
2022-08-26T12:03:59.686Z,18.93
2022-08-26T12:06:37.438Z,13.30
2022-08-26T12:09:20.555Z,13.77
2022-08-26T12:11:47.188Z,14.50
2022-08-26T12:14:24.249Z,9.97
2022-08-26T12:16:51.865Z,10.17
2022-08-26T12:19:33.404Z,7.53
2022-08-26T12:22:18.806Z,7.43
2022-08-26T12:24:59.616Z,6.70
2022-08-26T12:27:29.682Z,5.50
2022-08-26T12:30:19.297Z,5.00
2022-08-26T12:32:57.365Z,5.70
2022-08-26T12:35:25.407Z,5.87
2022-08-26T12:37:53.834Z,7.17
2022-08-26T12:40:43.164Z,6.77
2022-08-26T12:43:11.814Z,7.10
2022-08-26T12:45:45.419Z,6.60
2022-08-26T12:48:24.550Z,6.20
2022-08-26T12:50:52.140Z,7.07
2022-08-26T12:53:33.405Z,7.60
2022-08-26T12:56:17.468Z,6.40
2022-08-26T12:58:44.387Z,5.23
2022-08-26T13:01:10.938Z,4.20
2022-08-26T13:03:45.616Z,4.13
2022-08-26T13:06:16.324Z,3.80
2022-08-26T13:08:48.101Z,3.40
2022-08-26T13:11:42.848Z,3.83
2022-08-26T13:14:18.397Z,3.80
2022-08-26T13:16:51.271Z,4.40
2022-08-26T13:19:23.504Z,4.17
2022-08-26T13:21:53.844Z,4.23
2022-08-26T13:24:25.982Z,4.30
2022-08-26T13:26:52.691Z,4.67
2022-08-26T13:29:19.517Z,3.87
2022-08-26T13:31:47.336Z,4.60
2022-08-26T13:34:19.097Z,4.30
2022-08-26T13:36:47.161Z,3.73
2022-08-26T13:39:14.046Z,4.57
2022-08-26T13:41:40.997Z,4.10
2022-08-26T13:44:07.479Z,4.07
2022-08-26T13:46:34.157Z,3.80
2022-08-26T13:49:00.856Z,3.80
2022-08-26T13:51:27.985Z,4.13
2022-08-26T13:53:54.714Z,4.10
2022-08-26T13:56:22.827Z,3.90
2022-08-26T13:58:49.631Z,4.40
2022-08-26T14:01:16.981Z,4.50
2022-08-26T14:03:44.020Z,3.87
2022-08-26T14:06:10.712Z,3.27
2022-08-26T14:08:38.700Z,3.27
2022-08-26T14:11:05.663Z,3.50
2022-08-26T14:13:32.189Z,3.13
2022-08-26T14:16:01.327Z,3.20
2022-08-26T14:18:36.349Z,3.13
2022-08-26T14:21:07.367Z,3.20
2022-08-26T14:23:34.279Z,3.10
2022-08-26T14:26:03.607Z,3.03
2022-08-26T14:28:30.154Z,3.30
2022-08-26T14:30:58.132Z,2.73
2022-08-26T14:33:28.803Z,3.37
2022-08-26T14:36:17.851Z,3.07
2022-08-26T14:38:45.847Z,2.30
2022-08-26T14:41:13.919Z,3.10
2022-08-26T14:43:45.768Z,2.67
2022-08-26T14:46:14.362Z,3.10
2022-08-26T14:48:41.055Z,3.40
2022-08-26T14:51:07.760Z,2.60
2022-08-26T14:53:52.865Z,3.07
2022-08-26T14:56:19.533Z,3.00
2022-08-26T14:58:46.844Z,3.10
2022-08-26T15:01:13.378Z,3.00
2022-08-26T15:03:39.846Z,2.97
2022-08-26T15:06:06.559Z,3.10
2022-08-26T15:08:36.508Z,3.13
2022-08-26T15:11:03.829Z,2.80
2022-08-26T15:13:30.664Z,3.07
2022-08-26T15:15:57.262Z,3.00
2022-08-26T15:18:23.902Z,2.70
2022-08-26T15:20:50.348Z,3.00
2022-08-26T15:23:16.814Z,3.90
2022-08-26T15:25:44.935Z,3.00
2022-08-26T15:28:11.860Z,2.70
2022-08-26T15:30:38.549Z,3.43
2022-08-26T15:33:05.047Z,3.00
2022-08-26T15:35:33.055Z,2.97
2022-08-26T15:38:04.868Z,2.80
2022-08-26T15:40:31.365Z,2.70
2022-08-26T15:43:17.776Z,3.07
2022-08-26T15:45:44.507Z,2.60
2022-08-26T15:48:11.051Z,3.37
2022-08-26T15:50:49.984Z,3.37
2022-08-26T15:53:16.494Z,3.30
2022-08-26T15:55:43.053Z,2.90
2022-08-26T15:58:10.396Z,2.87
2022-08-26T16:00:37.568Z,2.97
2022-08-26T16:03:04.100Z,2.83
2022-08-26T16:05:30.594Z,3.03
2022-08-26T16:07:57.714Z,3.20
2022-08-26T16:10:24.357Z,3.57
2022-08-26T16:12:50.809Z,2.90
2022-08-26T16:15:17.310Z,3.27
2022-08-26T16:17:44.112Z,2.83
2022-08-26T16:20:10.842Z,3.03
2022-08-26T16:22:37.375Z,3.33
2022-08-26T16:25:04.100Z,3.30
2022-08-26T16:27:32.363Z,2.87
2022-08-26T16:29:58.800Z,2.90
2022-08-26T16:32:28.279Z,3.17
2022-08-26T16:34:57.807Z,3.10
2022-08-26T16:37:24.411Z,3.00
2022-08-26T16:39:50.955Z,3.07
2022-08-26T16:42:17.442Z,3.30
2022-08-26T16:44:46.995Z,2.80
2022-08-26T16:47:15.518Z,3.30
2022-08-26T16:49:42.309Z,3.20
2022-08-26T16:52:10.533Z,3.40
2022-08-26T16:54:39.721Z,3.17
2022-08-26T16:57:07.970Z,3.17
2022-08-26T16:59:34.923Z,3.43
2022-08-26T17:02:02.189Z,2.87
2022-08-26T17:04:29.448Z,5.00
2022-08-26T17:06:56.580Z,3.57
2022-08-26T17:09:23.062Z,2.70
2022-08-26T17:11:50.267Z,2.80
2022-08-26T17:14:16.854Z,2.27
2022-08-26T17:16:44.494Z,2.73
2022-08-26T17:19:11.073Z,2.80
2022-08-26T17:21:39.086Z,3.43
2022-08-26T17:24:06.759Z,2.47
2022-08-26T17:26:33.402Z,2.17
2022-08-26T17:29:00.052Z,2.50
2022-08-26T17:31:26.936Z,2.80
2022-08-26T17:33:55.381Z,3.30
2022-08-26T17:36:28.139Z,3.00
2022-08-26T17:38:56.225Z,3.90
2022-08-26T17:41:22.719Z,3.60
2022-08-26T17:43:49.200Z,3.33
2022-08-26T17:46:15.731Z,3.60
2022-08-26T17:48:42.307Z,2.50
2022-08-26T17:51:15.076Z,2.63
2022-08-26T17:53:42.065Z,3.10
2022-08-26T17:56:12.122Z,2.73
2022-08-26T17:58:40.473Z,3.00
2022-08-26T18:01:07.430Z,3.97
2022-08-26T18:03:35.060Z,3.23
2022-08-26T18:06:02.249Z,3.50
2022-08-26T18:08:28.775Z,2.63
2022-08-26T18:10:55.269Z,2.97
2022-08-26T18:13:21.748Z,2.63
2022-08-26T18:15:48.276Z,2.50
2022-08-26T18:18:15.992Z,2.40
2022-08-26T18:20:44.876Z,3.40
2022-08-26T18:23:12.970Z,2.70
2022-08-26T18:25:43.640Z,2.20
2022-08-26T18:28:10.476Z,2.90
2022-08-26T18:30:37.538Z,3.17
2022-08-26T18:33:04.279Z,3.00
2022-08-26T18:35:30.760Z,3.13
2022-08-26T18:37:58.002Z,3.10
2022-08-26T18:40:27.991Z,2.47
2022-08-26T18:42:54.540Z,2.50
2022-08-26T18:45:21.078Z,2.83
2022-08-26T18:47:47.500Z,2.53
2022-08-26T18:50:14.289Z,2.20
2022-08-26T18:52:40.926Z,2.60
2022-08-26T18:55:07.993Z,2.63
2022-08-26T18:57:34.524Z,3.87
2022-08-26T19:00:02.265Z,2.70
2022-08-26T19:02:28.883Z,2.93
2022-08-26T19:04:57.168Z,2.77
2022-08-26T19:07:23.652Z,2.50
2022-08-26T19:09:53.806Z,5.37
2022-08-26T19:12:20.714Z,2.80
2022-08-26T19:14:47.214Z,2.63
2022-08-26T19:17:13.847Z,2.50
2022-08-26T19:19:40.381Z,2.93
2022-08-26T19:22:07.577Z,2.70
2022-08-26T19:24:34.414Z,2.80
2022-08-26T19:27:02.829Z,2.70
2022-08-26T19:29:34.179Z,2.47
2022-08-26T19:32:01.895Z,2.57
2022-08-26T19:34:29.485Z,2.33
2022-08-26T19:36:58.220Z,2.80
2022-08-26T19:39:26.426Z,2.10
2022-08-26T19:41:53.429Z,2.20
2022-08-26T19:44:40.450Z,2.60
2022-08-26T19:47:10.272Z,2.90
2022-08-26T19:49:37.419Z,3.10
2022-08-26T19:52:05.611Z,2.23
2022-08-26T19:54:32.144Z,3.20
2022-08-26T19:56:58.603Z,2.50
2022-08-26T19:59:25.111Z,3.17
2022-08-26T20:02:00.782Z,3.83
2022-08-26T20:04:28.763Z,2.60
2022-08-26T20:06:57.632Z,2.47
2022-08-26T20:09:25.320Z,2.60
2022-08-26T20:11:52.031Z,2.93
2022-08-26T20:14:23.265Z,2.00
2022-08-26T20:16:49.811Z,2.93
2022-08-26T20:19:37.533Z,2.63
2022-08-26T20:22:05.982Z,2.00
2022-08-26T20:24:33.289Z,2.30
2022-08-26T20:27:03.315Z,2.60
2022-08-26T20:29:32.952Z,2.10
2022-08-26T20:31:59.538Z,2.57
2022-08-26T20:34:26.335Z,2.67
2022-08-26T20:36:52.984Z,2.33
2022-08-26T20:39:23.312Z,3.27
2022-08-26T20:41:49.932Z,3.10
2022-08-26T20:44:17.573Z,4.40
2022-08-26T20:46:44.644Z,4.27
2022-08-26T20:49:11.250Z,5.53
2022-08-26T20:51:37.908Z,4.50
2022-08-26T20:54:06.508Z,4.10
2022-08-26T20:56:33.102Z,3.60
2022-08-26T20:59:01.102Z,3.00
2022-08-26T21:01:33.514Z,3.30
2022-08-26T21:04:02.795Z,3.10
2022-08-26T21:06:29.907Z,2.50
2022-08-26T21:08:57.074Z,2.80
2022-08-26T21:11:25.115Z,2.43
2022-08-26T21:14:15.892Z,2.57
2022-08-26T21:16:39.955Z,2.43
2022-08-26T21:19:10.093Z,2.13
2022-08-26T21:21:36.949Z,2.20
2022-08-26T21:24:03.783Z,2.40
2022-08-26T21:26:30.241Z,2.50
2022-08-26T21:28:56.739Z,2.03
2022-08-26T21:31:24.896Z,2.40
2022-08-26T21:33:51.745Z,2.20
2022-08-26T21:36:19.327Z,2.43
2022-08-26T21:38:45.888Z,2.53
2022-08-26T21:41:16.331Z,2.23
2022-08-26T21:43:42.925Z,2.50
2022-08-26T21:46:12.552Z,2.40
2022-08-26T21:48:40.237Z,2.30
2022-08-26T21:51:07.291Z,2.80
2022-08-26T21:53:35.155Z,2.87
2022-08-26T21:56:11.883Z,2.50
2022-08-26T21:58:39.414Z,2.30
2022-08-26T22:01:11.267Z,3.20
2022-08-26T22:03:47.560Z,3.23
2022-08-26T22:06:16.666Z,2.83
2022-08-26T22:08:43.595Z,3.40
2022-08-26T22:11:10.340Z,3.20
2022-08-26T22:13:39.844Z,3.40
2022-08-26T22:16:07.316Z,3.60
2022-08-26T22:18:34.658Z,3.83
2022-08-26T22:21:05.101Z,4.60
2022-08-26T22:23:31.950Z,3.47
2022-08-26T22:25:59.320Z,4.03
2022-08-26T22:28:25.977Z,3.60
2022-08-26T22:30:52.457Z,3.53
2022-08-26T22:33:19.202Z,4.17
2022-08-26T22:35:48.639Z,3.77
2022-08-26T22:38:15.641Z,3.93
2022-08-26T22:40:49.403Z,4.20
2022-08-26T22:43:17.967Z,3.50
2022-08-26T22:45:47.990Z,3.87
2022-08-26T22:48:17.471Z,3.57
2022-08-26T22:50:45.783Z,3.83
2022-08-26T22:53:13.308Z,2.97
2022-08-26T22:55:39.838Z,2.83
2022-08-26T22:58:07.135Z,3.37
2022-08-26T23:00:34.321Z,3.30
2022-08-26T23:03:02.805Z,3.00
2022-08-26T23:05:29.661Z,3.90
2022-08-26T23:07:56.724Z,3.20
2022-08-26T23:10:24.066Z,3.43
2022-08-26T23:12:52.317Z,3.70
2022-08-26T23:15:20.274Z,4.17
2022-08-26T23:17:47.676Z,4.10
2022-08-26T23:20:24.381Z,5.33
2022-08-26T23:22:50.871Z,5.60
2022-08-26T23:25:17.342Z,5.40
2022-08-26T23:27:44.324Z,5.70
2022-08-26T23:30:15.100Z,5.67
2022-08-26T23:32:41.736Z,5.60
2022-08-26T23:35:09.768Z,5.37
2022-08-26T23:37:43.599Z,5.27
2022-08-26T23:40:21.180Z,4.77
2022-08-26T23:42:47.933Z,4.60
2022-08-26T23:45:18.245Z,4.97
2022-08-26T23:47:45.415Z,4.90
2022-08-26T23:50:13.074Z,4.30
2022-08-26T23:53:14.879Z,4.90
2022-08-26T23:55:41.306Z,5.17
2022-08-26T23:58:07.768Z,4.30
